createdAt,value
2019-02-08T00:01:29.355Z,100.00
2019-02-08T00:03:58.042Z,100.00
2019-02-08T00:07:06.377Z,100.00
2019-02-08T00:09:34.764Z,100.00
2019-02-08T00:12:03.174Z,100.00
2019-02-08T00:14:31.871Z,100.00
2019-02-08T00:17:00.599Z,100.00
2019-02-08T00:19:29.067Z,100.00
2019-02-08T00:21:57.750Z,100.00
2019-02-08T00:24:26.156Z,100.00
2019-02-08T00:26:54.832Z,100.00
2019-02-08T00:32:17.604Z,100.00
2019-02-08T00:34:46.379Z,100.00
2019-02-08T00:37:15.059Z,100.00
2019-02-08T00:39:43.450Z,100.00
2019-02-08T00:42:12.131Z,100.00
2019-02-08T00:44:40.516Z,100.00
2019-02-08T00:47:08.915Z,100.00
2019-02-08T00:49:37.303Z,100.00
2019-02-08T00:52:06.049Z,100.00
2019-02-08T00:54:34.440Z,100.00
2019-02-08T00:57:03.110Z,100.00
2019-02-08T00:59:31.799Z,100.00
2019-02-08T01:02:00.482Z,100.00
2019-02-08T01:04:48.224Z,100.00
2019-02-08T01:07:16.903Z,100.00
2019-02-08T01:09:45.308Z,100.00
2019-02-08T01:12:13.768Z,100.00
2019-02-08T01:14:42.452Z,100.00
2019-02-08T01:17:10.843Z,100.00
2019-02-08T01:19:39.512Z,100.00
2019-02-08T01:22:07.970Z,100.00
2019-02-08T01:24:36.380Z,100.00
2019-02-08T01:27:05.160Z,100.00
2019-02-08T01:29:33.788Z,100.00
2019-02-08T01:32:21.532Z,100.00
2019-02-08T01:34:49.923Z,100.00
2019-02-08T01:37:18.324Z,100.00
2019-02-08T01:39:46.719Z,100.00
2019-02-08T01:42:15.126Z,100.00
2019-02-08T01:44:43.806Z,100.00
2019-02-08T01:47:12.199Z,100.00
2019-02-08T01:49:40.604Z,100.00
2019-02-08T01:52:09.339Z,100.00
2019-02-08T01:54:38.010Z,100.00
2019-02-08T01:57:06.471Z,100.00
2019-02-08T01:59:34.870Z,100.00
2019-02-08T02:02:03.495Z,100.00
2019-02-08T02:04:32.147Z,100.00
2019-02-08T02:07:00.531Z,100.00
2019-02-08T02:09:29.206Z,100.00
2019-02-08T02:11:57.890Z,100.00
2019-02-08T02:14:26.296Z,100.00
2019-02-08T02:22:57.763Z,100.00
2019-02-08T02:25:26.656Z,100.00
2019-02-08T02:27:55.219Z,100.00
2019-02-08T02:30:42.964Z,100.00
2019-02-08T02:33:51.497Z,100.00
2019-02-08T02:36:19.913Z,100.00
2019-02-08T02:38:48.558Z,100.00
2019-02-08T02:41:17.241Z,100.00
2019-02-08T02:43:45.647Z,100.00
2019-02-08T02:46:14.304Z,100.00
2019-02-08T02:48:42.710Z,100.00
2019-02-08T02:51:11.371Z,100.00
2019-02-08T02:53:39.774Z,100.00
2019-02-08T02:56:08.437Z,100.00
2019-02-08T02:58:36.824Z,100.00
2019-02-08T03:01:45.379Z,100.00
2019-02-08T03:04:13.783Z,100.00
2019-02-08T03:06:42.411Z,100.00
2019-02-08T03:09:10.804Z,100.00
2019-02-08T03:11:39.207Z,100.00
2019-02-08T03:14:07.602Z,100.00
2019-02-08T03:16:55.408Z,100.00
2019-02-08T03:19:24.054Z,100.00
2019-02-08T03:21:52.463Z,100.00
2019-02-08T03:24:20.855Z,100.00
2019-02-08T03:26:49.247Z,100.00
2019-02-08T03:29:17.649Z,100.00
2019-02-08T03:31:46.294Z,100.00
2019-02-08T03:34:14.675Z,100.00
2019-02-08T03:36:43.299Z,100.00
2019-02-08T03:39:12.010Z,100.00
2019-02-08T03:41:59.985Z,100.00
2019-02-08T03:47:23.433Z,100.00
2019-02-08T03:49:52.118Z,100.00
2019-02-08T03:52:20.503Z,100.00
2019-02-08T03:54:49.641Z,100.00
2019-02-08T03:57:19.298Z,100.00
2019-02-08T03:59:47.691Z,100.00
2019-02-08T04:02:16.095Z,100.00
2019-02-08T04:04:44.475Z,100.00
2019-02-08T04:07:13.223Z,100.00
2019-02-08T04:09:41.611Z,100.00
2019-02-08T04:12:10.387Z,100.00
2019-02-08T04:14:38.787Z,100.00
2019-02-08T04:17:26.519Z,100.00
2019-02-08T04:19:54.919Z,100.00
2019-02-08T04:22:23.547Z,100.00
2019-02-08T04:24:52.251Z,100.00
2019-02-08T04:27:20.939Z,100.00
2019-02-08T04:29:49.726Z,100.00
2019-02-08T04:32:18.411Z,100.00
2019-02-08T04:34:46.815Z,100.00
2019-02-08T04:37:15.487Z,100.00
2019-02-08T04:39:44.185Z,100.00
2019-02-08T04:42:12.566Z,100.00
2019-02-08T04:44:40.962Z,100.00
2019-02-08T04:47:09.620Z,100.00
2019-02-08T04:49:38.290Z,100.00
2019-02-08T04:52:06.684Z,100.00
2019-02-08T04:54:38.474Z,100.00
2019-02-08T04:57:05.206Z,100.00
2019-02-08T04:59:33.652Z,100.00
2019-02-08T05:02:02.045Z,100.00
2019-02-08T05:04:30.477Z,100.00
2019-02-08T05:06:58.872Z,100.00
2019-02-08T05:09:27.255Z,100.00
2019-02-08T05:11:55.953Z,100.00
2019-02-08T05:14:24.638Z,100.00
2019-02-08T05:16:53.034Z,100.00
2019-02-08T05:19:21.476Z,100.00
2019-02-08T05:21:49.864Z,100.00
2019-02-08T05:24:18.563Z,100.00
2019-02-08T05:26:46.970Z,100.00
2019-02-08T05:29:15.597Z,100.00
2019-02-08T05:31:43.982Z,100.00
2019-02-08T05:34:12.707Z,100.00
2019-02-08T05:36:41.108Z,100.00
2019-02-08T05:39:49.422Z,100.00
2019-02-08T05:42:18.070Z,100.00
2019-02-08T05:44:46.465Z,100.00
2019-02-08T05:47:15.136Z,100.00
2019-02-08T05:49:43.826Z,100.00
2019-02-08T05:52:12.215Z,100.00
2019-02-08T05:55:00.271Z,100.00
2019-02-08T05:57:29.154Z,100.00
2019-02-08T05:59:57.822Z,100.00
2019-02-08T06:02:26.225Z,100.00
2019-02-08T06:04:54.626Z,100.00
2019-02-08T06:07:23.019Z,100.00
2019-02-08T06:10:31.633Z,100.00
2019-02-08T06:13:00.034Z,100.00
2019-02-08T06:15:28.745Z,100.00
2019-02-08T06:17:57.405Z,100.00
2019-02-08T06:20:46.584Z,100.00
2019-02-08T06:23:15.243Z,100.00
2019-02-08T06:25:43.780Z,100.00
2019-02-08T06:28:12.528Z,100.00
2019-02-08T06:30:40.930Z,100.00
2019-02-08T06:33:28.668Z,100.00
2019-02-08T06:35:57.318Z,100.00
2019-02-08T06:38:25.764Z,100.00
2019-02-08T06:41:13.504Z,100.00
2019-02-08T06:43:42.224Z,100.00
2019-02-08T06:46:10.916Z,100.00
2019-02-08T06:48:58.724Z,100.00
2019-02-08T06:51:27.125Z,100.00
2019-02-08T06:53:55.588Z,100.00
2019-02-08T06:56:43.227Z,100.00
2019-02-08T06:59:31.251Z,100.00
2019-02-08T07:04:54.577Z,100.00
2019-02-08T07:07:42.090Z,100.00
2019-02-08T07:10:50.428Z,100.00
2019-02-08T07:13:38.032Z,100.00
2019-02-08T07:21:40.532Z,100.00
2019-02-08T07:24:48.888Z,100.00
2019-02-08T07:27:36.649Z,100.00
2019-02-08T07:30:45.182Z,100.00
2019-02-08T07:42:22.195Z,100.00
2019-02-08T07:45:30.490Z,100.00
2019-02-08T07:59:21.625Z,100.00
2019-02-08T08:02:09.364Z,100.00
2019-02-08T08:04:57.020Z,100.00
2019-02-08T08:07:44.656Z,100.00
2019-02-08T08:10:53.222Z,100.00
2019-02-08T08:13:40.717Z,100.00
2019-02-08T08:19:44.130Z,100.00
2019-02-08T08:22:52.424Z,100.00
2019-02-08T08:26:00.993Z,100.00
2019-02-08T08:28:48.564Z,100.00
2019-02-08T08:31:56.878Z,100.00
2019-02-08T08:35:03.857Z,100.00
2019-02-08T08:38:12.240Z,100.00
2019-02-08T08:41:19.451Z,100.00
2019-02-08T08:44:26.451Z,100.00
2019-02-08T08:47:34.748Z,100.00
2019-02-08T08:50:43.059Z,100.00
2019-02-08T08:53:50.278Z,100.00
2019-02-08T08:56:57.277Z,100.00
2019-02-08T09:00:05.633Z,100.00
2019-02-08T09:03:12.630Z,100.00
2019-02-08T09:06:20.984Z,100.00
2019-02-08T09:09:29.306Z,100.00
2019-02-08T09:12:36.520Z,100.00
2019-02-08T09:15:43.520Z,99.70
2019-02-08T09:18:52.057Z,100.00
2019-02-08T09:22:00.662Z,99.25
2019-02-08T09:25:07.640Z,98.86
2019-02-08T09:28:16.186Z,99.32
2019-02-08T09:31:23.391Z,97.75
2019-02-08T09:34:30.610Z,96.37
2019-02-08T09:37:37.835Z,95.85
2019-02-08T09:40:46.203Z,95.73
2019-02-08T09:43:53.169Z,95.05
2019-02-08T09:47:00.152Z,95.27
2019-02-08T09:50:07.119Z,93.94
2019-02-08T09:53:14.104Z,92.34
2019-02-08T09:56:21.322Z,93.60
2019-02-08T09:59:28.362Z,90.75
2019-02-08T10:02:35.572Z,90.81
2019-02-08T10:05:43.987Z,90.14
2019-02-08T10:08:52.334Z,90.91
2019-02-08T10:11:59.316Z,88.18
2019-02-08T10:15:07.834Z,89.26
2019-02-08T10:18:16.434Z,87.11
2019-02-08T10:21:23.642Z,87.80
2019-02-08T10:24:30.871Z,87.02
2019-02-08T10:27:37.835Z,87.49
2019-02-08T10:30:44.823Z,86.09
2019-02-08T10:33:53.167Z,85.11
2019-02-08T10:37:00.162Z,85.69
2019-02-08T10:40:07.386Z,85.08
2019-02-08T10:43:15.696Z,85.00
2019-02-08T10:46:22.662Z,83.76
2019-02-08T10:49:31.219Z,83.18
2019-02-08T10:52:38.434Z,84.00
2019-02-08T10:55:45.414Z,82.34
2019-02-08T10:58:52.383Z,82.61
2019-02-08T11:01:59.600Z,83.35
2019-02-08T11:05:06.806Z,80.62
2019-02-08T11:08:14.025Z,80.59
2019-02-08T11:11:21.051Z,78.81
2019-02-08T11:14:28.214Z,78.96
2019-02-08T11:17:36.799Z,79.88
2019-02-08T11:20:45.101Z,78.53
2019-02-08T11:23:13.481Z,79.56
2019-02-08T11:25:42.218Z,80.00
2019-02-08T11:28:29.960Z,79.71
2019-02-08T11:30:58.620Z,80.54
2019-02-08T11:33:27.309Z,79.47
2019-02-08T11:35:56.103Z,79.71
2019-02-08T11:38:24.478Z,79.87
2019-02-08T11:40:52.857Z,77.90
2019-02-08T11:43:21.253Z,77.75
2019-02-08T11:45:49.629Z,75.97
2019-02-08T11:48:18.458Z,74.86
2019-02-08T11:50:46.856Z,75.83
2019-02-08T11:53:15.252Z,73.01
2019-02-08T11:55:43.949Z,75.16
2019-02-08T11:58:12.584Z,75.27
2019-02-08T12:03:30.130Z,74.60
2019-02-08T12:05:58.760Z,74.34
2019-02-08T12:08:27.552Z,73.71
2019-02-08T12:10:56.253Z,73.22
2019-02-08T12:13:24.682Z,73.54
2019-02-08T12:15:53.061Z,73.10
2019-02-08T12:18:41.155Z,71.26
2019-02-08T12:21:09.641Z,72.45
2019-02-08T12:23:38.022Z,72.25
2019-02-08T12:26:06.683Z,72.72
2019-02-08T12:28:35.072Z,72.61
2019-02-08T12:31:03.850Z,73.03
2019-02-08T12:33:32.247Z,71.83
2019-02-08T12:36:00.916Z,72.12
2019-02-08T12:38:29.601Z,71.90
2019-02-08T12:40:57.995Z,73.19
2019-02-08T12:43:26.665Z,70.08
2019-02-08T12:45:55.348Z,71.14
2019-02-08T12:48:23.743Z,70.43
2019-02-08T12:50:52.415Z,71.75
2019-02-08T12:53:21.201Z,72.29
2019-02-08T12:55:49.596Z,70.77
2019-02-08T12:58:17.974Z,71.17
2019-02-08T13:00:46.645Z,70.13
2019-02-08T13:03:15.434Z,70.73
2019-02-08T13:06:03.473Z,70.92
2019-02-08T13:08:31.868Z,70.24
2019-02-08T13:11:00.713Z,70.44
2019-02-08T13:13:30.767Z,70.70
2019-02-08T13:15:59.159Z,68.99
2019-02-08T13:18:27.832Z,69.13
2019-02-08T13:20:56.296Z,69.44
2019-02-08T13:23:24.707Z,68.06
2019-02-08T13:25:53.101Z,68.08
2019-02-08T13:28:21.495Z,69.11
2019-02-08T13:30:50.142Z,68.39
2019-02-08T13:33:18.782Z,66.04
2019-02-08T13:35:47.425Z,66.97
2019-02-08T13:38:15.841Z,66.95
2019-02-08T13:40:44.313Z,67.67
2019-02-08T13:43:12.693Z,68.05
2019-02-08T13:45:41.091Z,67.33
2019-02-08T13:48:09.857Z,66.84
2019-02-08T13:50:38.246Z,67.73
2019-02-08T13:53:06.960Z,66.61
2019-02-08T13:55:35.671Z,66.50
2019-02-08T13:58:06.065Z,67.07
2019-02-08T14:01:14.555Z,66.81
2019-02-08T14:03:42.944Z,67.18
2019-02-08T14:06:11.483Z,67.80
2019-02-08T14:08:39.893Z,66.09
2019-02-08T14:11:08.601Z,66.77
2019-02-08T14:13:40.740Z,66.04
2019-02-08T14:16:07.188Z,64.92
2019-02-08T14:18:35.833Z,66.77
2019-02-08T14:23:58.996Z,67.54
2019-02-08T14:26:27.384Z,67.22
2019-02-08T14:28:56.026Z,67.08
2019-02-08T14:31:24.418Z,68.03
2019-02-08T14:33:52.797Z,66.97
2019-02-08T14:36:21.422Z,66.80
2019-02-08T14:38:49.814Z,68.26
2019-02-08T14:41:18.200Z,67.32
2019-02-08T14:43:46.915Z,66.39
2019-02-08T14:46:15.598Z,66.71
2019-02-08T14:48:44.388Z,66.26
2019-02-08T14:51:12.823Z,67.63
2019-02-08T14:53:41.225Z,66.00
2019-02-08T14:56:10.039Z,65.77
2019-02-08T14:58:38.479Z,66.96
2019-02-08T15:01:07.203Z,66.24
2019-02-08T15:03:35.903Z,67.05
2019-02-08T15:06:44.453Z,67.48
2019-02-08T15:09:12.834Z,67.74
2019-02-08T15:11:41.456Z,67.81
2019-02-08T15:14:10.157Z,66.93
2019-02-08T15:16:38.601Z,69.16
2019-02-08T15:19:06.981Z,69.52
2019-02-08T15:21:35.705Z,69.00
2019-02-08T15:27:31.513Z,70.67
2019-02-08T15:29:59.917Z,70.58
2019-02-08T15:32:28.541Z,69.98
2019-02-08T15:35:36.997Z,72.06
2019-02-08T15:38:45.376Z,71.84
2019-02-08T15:41:13.894Z,73.53
2019-02-08T15:43:42.303Z,72.42
2019-02-08T15:46:11.096Z,73.07
2019-02-08T15:48:39.880Z,72.46
2019-02-08T15:51:08.263Z,72.22
2019-02-08T15:53:55.998Z,73.02
2019-02-08T15:56:24.681Z,73.34
2019-02-08T15:58:53.121Z,74.26
2019-02-08T16:01:21.645Z,74.52
2019-02-08T16:03:50.331Z,74.56
2019-02-08T16:06:19.025Z,75.73
2019-02-08T16:09:27.367Z,77.89
2019-02-08T16:11:55.827Z,77.49
2019-02-08T16:14:24.214Z,79.34
2019-02-08T16:16:52.747Z,78.46
2019-02-08T16:19:21.194Z,79.11
2019-02-08T16:21:49.579Z,79.15
2019-02-08T16:24:18.218Z,81.21
2019-02-08T16:26:46.597Z,82.10
2019-02-08T16:29:15.487Z,82.13
2019-02-08T16:31:44.106Z,84.47
2019-02-08T16:34:12.554Z,83.93
2019-02-08T16:36:41.254Z,86.35
2019-02-08T16:39:49.614Z,86.85
2019-02-08T16:42:18.044Z,86.95
2019-02-08T16:44:46.746Z,87.42
2019-02-08T16:47:16.506Z,88.21
2019-02-08T16:49:45.616Z,89.55
2019-02-08T16:52:33.348Z,88.16
2019-02-08T16:55:02.058Z,89.75
2019-02-08T16:57:30.458Z,92.57
2019-02-08T16:59:58.911Z,92.28
2019-02-08T17:02:27.698Z,92.30
2019-02-08T17:04:56.087Z,92.01
2019-02-08T17:07:24.533Z,90.29
2019-02-08T17:09:53.166Z,89.94
2019-02-08T17:12:21.556Z,89.85
2019-02-08T17:14:50.181Z,89.15
2019-02-08T17:17:18.638Z,84.35
2019-02-08T17:19:47.014Z,84.10
2019-02-08T17:22:23.017Z,84.45
2019-02-08T17:24:51.398Z,86.31
2019-02-08T17:27:20.094Z,86.47
2019-02-08T17:29:48.773Z,85.01
2019-02-08T17:32:17.454Z,84.90
2019-02-08T17:34:45.838Z,83.93
2019-02-08T17:37:14.221Z,84.31
2019-02-08T17:39:42.664Z,84.22
2019-02-08T17:42:11.043Z,83.25
2019-02-08T17:44:39.439Z,84.29
2019-02-08T17:47:07.818Z,84.94
2019-02-08T17:49:36.239Z,84.45
2019-02-08T17:52:04.890Z,83.35
2019-02-08T17:54:33.266Z,84.31
2019-02-08T17:57:01.709Z,84.52
2019-02-08T17:59:30.350Z,84.18
2019-02-08T18:01:59.026Z,83.79
2019-02-08T18:04:27.418Z,84.67
2019-02-08T18:06:55.793Z,84.02
2019-02-08T18:09:24.423Z,83.93
2019-02-08T18:11:52.804Z,84.23
2019-02-08T18:14:21.206Z,85.15
2019-02-08T18:16:49.577Z,83.34
2019-02-08T18:19:18.290Z,84.30
2019-02-08T18:22:06.331Z,85.09
2019-02-08T18:24:34.716Z,84.45
2019-02-08T18:27:03.109Z,84.42
2019-02-08T18:29:31.511Z,84.82
2019-02-08T18:31:59.868Z,85.42
2019-02-08T18:34:47.882Z,85.98
2019-02-08T18:37:16.569Z,85.81
2019-02-08T18:39:45.261Z,87.65
2019-02-08T18:42:13.646Z,88.35
2019-02-08T18:44:42.318Z,89.17
2019-02-08T18:47:11.013Z,89.77
2019-02-08T18:49:39.691Z,90.66
2019-02-08T18:52:08.082Z,91.02
2019-02-08T18:54:36.477Z,92.73
2019-02-08T18:57:04.853Z,93.80
2019-02-08T18:59:33.251Z,93.34
2019-02-08T19:02:01.893Z,94.33
2019-02-08T19:04:30.297Z,93.26
2019-02-08T19:06:58.679Z,94.64
2019-02-08T19:09:27.126Z,94.61
2019-02-08T19:11:55.515Z,94.11
2019-02-08T19:14:24.151Z,95.00
2019-02-08T19:16:52.580Z,96.57
2019-02-08T19:19:21.147Z,96.15
2019-02-08T19:21:51.085Z,94.81
2019-02-08T19:24:19.967Z,94.78
2019-02-08T19:26:48.667Z,93.95
2019-02-08T19:29:17.071Z,94.93
2019-02-08T19:31:45.468Z,95.80
2019-02-08T19:34:13.865Z,94.28
2019-02-08T19:36:42.498Z,95.10
2019-02-08T19:39:10.965Z,95.35
2019-02-08T19:41:39.350Z,95.73
2019-02-08T19:44:08.092Z,96.74
2019-02-08T19:46:36.474Z,97.79
2019-02-08T19:49:05.469Z,96.64
2019-02-08T19:51:33.869Z,97.57
2019-02-08T19:54:02.250Z,95.43
2019-02-08T19:56:31.010Z,96.45
2019-02-08T19:58:59.824Z,97.16
2019-02-08T20:01:28.397Z,96.68
2019-02-08T20:03:57.366Z,97.87
2019-02-08T20:06:26.035Z,98.98
2019-02-08T20:08:55.074Z,98.28
2019-02-08T20:11:23.715Z,96.25
2019-02-08T20:13:52.246Z,97.41
2019-02-08T20:16:20.865Z,99.41
2019-02-08T20:18:49.549Z,98.05
2019-02-08T20:21:18.012Z,100.00
2019-02-08T20:23:46.721Z,100.00
2019-02-08T20:26:15.487Z,100.00
2019-02-08T20:28:43.995Z,100.00
2019-02-08T20:31:12.728Z,99.12
2019-02-08T20:33:41.234Z,97.84
2019-02-08T20:36:10.107Z,96.19
2019-02-08T20:38:39.254Z,96.93
2019-02-08T20:41:07.743Z,97.48
2019-02-08T20:43:36.242Z,96.65
2019-02-08T20:46:05.242Z,98.39
2019-02-08T20:48:34.190Z,100.00
2019-02-08T20:51:02.816Z,100.00
2019-02-08T20:53:31.763Z,100.00
2019-02-08T20:56:00.295Z,99.45
2019-02-08T20:58:28.919Z,97.41
2019-02-08T21:00:57.444Z,95.91
2019-02-08T21:03:26.156Z,94.00
2019-02-08T21:05:54.885Z,95.75
2019-02-08T21:08:23.759Z,96.93
2019-02-08T21:10:52.316Z,96.57
2019-02-08T21:13:20.992Z,98.07
2019-02-08T21:15:49.589Z,97.73
2019-02-08T21:18:18.401Z,95.10
2019-02-08T21:20:47.028Z,93.38
2019-02-08T21:23:15.584Z,96.87
2019-02-08T21:25:51.612Z,95.79
2019-02-08T21:28:14.433Z,97.19
2019-02-08T21:30:43.122Z,98.55
2019-02-08T21:33:12.175Z,97.33
2019-02-08T21:35:40.641Z,93.83
2019-02-08T21:38:09.908Z,95.63
2019-02-08T21:40:39.069Z,94.98
2019-02-08T21:43:07.900Z,95.65
2019-02-08T21:45:39.556Z,95.19
2019-02-08T21:48:09.317Z,96.75
2019-02-08T21:50:38.140Z,97.34
2019-02-08T21:53:06.882Z,97.64
2019-02-08T21:55:35.611Z,99.43
2019-02-08T21:58:04.133Z,99.83
2019-02-08T22:00:41.272Z,98.84
2019-02-08T22:03:09.994Z,99.73
2019-02-08T22:05:46.991Z,100.00
2019-02-08T22:08:15.626Z,100.00
2019-02-08T22:10:44.087Z,97.97
2019-02-08T22:13:12.505Z,100.00
2019-02-08T22:15:45.308Z,100.00
2019-02-08T22:18:13.768Z,100.00
2019-02-08T22:20:42.326Z,100.00
2019-02-08T22:23:11.185Z,100.00
2019-02-08T22:25:39.664Z,100.00
2019-02-08T22:28:08.604Z,100.00
2019-02-08T22:30:37.116Z,100.00
2019-02-08T22:33:10.285Z,100.00
2019-02-08T22:35:38.882Z,100.00
2019-02-08T22:38:09.085Z,100.00
2019-02-08T22:40:37.527Z,100.00
2019-02-08T22:43:06.477Z,100.00
2019-02-08T22:45:40.160Z,100.00
2019-02-08T22:48:09.150Z,98.33
2019-02-08T22:50:37.638Z,96.96
2019-02-08T22:53:07.265Z,92.78
2019-02-08T22:55:37.508Z,89.94
2019-02-08T22:58:07.952Z,92.34
2019-02-08T23:00:41.107Z,88.04
2019-02-08T23:03:13.691Z,86.96
2019-02-08T23:05:45.818Z,91.40
2019-02-08T23:08:12.869Z,91.82
2019-02-08T23:10:41.660Z,92.04
2019-02-08T23:13:10.651Z,97.01
2019-02-08T23:15:39.115Z,96.74
2019-02-08T23:18:09.061Z,97.79
2019-02-08T23:20:37.997Z,100.00
2019-02-08T23:23:07.355Z,97.76
2019-02-08T23:25:36.132Z,97.03
2019-02-08T23:28:05.164Z,97.31
2019-02-08T23:30:33.865Z,97.28
2019-02-08T23:33:02.227Z,99.30
2019-02-08T23:35:30.978Z,97.13
2019-02-08T23:37:59.661Z,99.43
2019-02-08T23:40:28.132Z,99.99
2019-02-08T23:42:56.588Z,97.81
2019-02-08T23:45:25.046Z,99.67
2019-02-08T23:47:53.794Z,100.00
2019-02-08T23:50:24.528Z,98.12
2019-02-08T23:52:53.336Z,96.55
2019-02-08T23:55:23.079Z,96.16
2019-02-08T23:57:51.712Z,92.96
